createdAt,value
2017-11-27T00:00:18.943Z,46.40
2017-11-27T00:02:47.243Z,50.93
2017-11-27T00:05:15.573Z,31.30
2017-11-27T00:07:43.875Z,31.50
2017-11-27T00:10:12.303Z,37.07
2017-11-27T00:12:41.381Z,38.20
2017-11-27T00:15:09.775Z,42.63
2017-11-27T00:17:38.153Z,47.70
2017-11-27T00:20:07.217Z,37.30
2017-11-27T00:22:41.040Z,34.53
2017-11-27T00:25:09.422Z,31.60
2017-11-27T00:27:37.889Z,36.33
2017-11-27T00:30:06.191Z,39.07
2017-11-27T00:32:35.275Z,32.00
2017-11-27T00:35:03.656Z,37.63
2017-11-27T00:37:31.976Z,40.00
2017-11-27T00:40:00.274Z,38.90
2017-11-27T00:42:28.676Z,27.33
2017-11-27T00:44:56.968Z,25.43
2017-11-27T00:47:25.252Z,28.30
2017-11-27T00:49:53.621Z,42.53
2017-11-27T00:52:22.692Z,55.73
2017-11-27T00:54:51.807Z,43.17
2017-11-27T00:57:20.874Z,46.07
2017-11-27T00:59:49.213Z,49.20
2017-11-27T01:02:17.545Z,49.40
2017-11-27T01:04:45.868Z,52.13
2017-11-27T01:07:14.235Z,53.63
2017-11-27T01:09:43.303Z,43.40
2017-11-27T01:12:12.367Z,50.20
2017-11-27T01:14:40.774Z,58.03
2017-11-27T01:17:09.060Z,53.30
2017-11-27T01:19:38.144Z,52.40
2017-11-27T01:22:06.465Z,45.17
2017-11-27T01:24:34.808Z,47.73
2017-11-27T01:27:04.001Z,56.20
2017-11-27T01:29:32.327Z,58.80
2017-11-27T01:32:00.635Z,59.93
2017-11-27T01:34:29.024Z,46.43
2017-11-27T01:36:57.315Z,56.47
2017-11-27T01:39:26.388Z,52.60
2017-11-27T01:41:54.716Z,34.20
2017-11-27T01:44:23.055Z,35.67
2017-11-27T01:46:52.150Z,33.63
2017-11-27T01:49:21.245Z,34.00
2017-11-27T01:51:49.574Z,34.00
2017-11-27T01:54:17.931Z,51.90
2017-11-27T01:56:46.275Z,29.00
2017-11-27T01:59:15.371Z,27.63
2017-11-27T02:01:44.562Z,23.50
2017-11-27T02:04:19.402Z,32.33
2017-11-27T02:06:48.501Z,24.97
2017-11-27T02:09:16.776Z,20.40
2017-11-27T02:11:45.104Z,18.00
2017-11-27T02:14:13.416Z,17.87
2017-11-27T02:16:41.793Z,17.83
2017-11-27T02:19:10.888Z,20.13
2017-11-27T02:21:39.219Z,19.37
2017-11-27T02:24:07.497Z,20.37
2017-11-27T02:26:35.797Z,21.13
2017-11-27T02:29:04.113Z,22.90
2017-11-27T02:31:32.475Z,32.47
2017-11-27T02:34:01.571Z,26.77
2017-11-27T02:36:29.872Z,34.73
2017-11-27T02:38:58.214Z,37.30
2017-11-27T02:41:26.495Z,31.80
2017-11-27T02:43:54.799Z,33.70
2017-11-27T02:46:23.879Z,33.20
2017-11-27T02:48:52.962Z,38.50
2017-11-27T02:51:22.069Z,31.80
2017-11-27T02:53:51.161Z,36.53
2017-11-27T02:56:20.264Z,36.40
2017-11-27T02:58:49.343Z,32.17
2017-11-27T03:01:18.437Z,30.43
2017-11-27T03:03:47.529Z,31.67
2017-11-27T03:06:15.909Z,47.77
2017-11-27T03:08:44.995Z,46.83
2017-11-27T03:11:13.299Z,46.90
2017-11-27T03:13:41.773Z,45.90
2017-11-27T03:16:10.837Z,40.93
2017-11-27T03:18:39.168Z,42.23
2017-11-27T03:21:07.523Z,38.90
2017-11-27T03:23:36.608Z,44.37
2017-11-27T03:26:05.694Z,38.33
2017-11-27T03:28:34.090Z,37.20
2017-11-27T03:31:02.417Z,42.83
2017-11-27T03:33:30.735Z,46.67
2017-11-27T03:35:59.091Z,40.53
2017-11-27T03:38:27.393Z,38.67
2017-11-27T03:40:56.450Z,41.87
2017-11-27T03:43:24.790Z,44.13
2017-11-27T03:45:53.077Z,50.20
2017-11-27T03:48:21.506Z,46.63
2017-11-27T03:50:50.577Z,52.17
2017-11-27T03:53:18.900Z,45.97
2017-11-27T03:55:47.950Z,47.03
2017-11-27T03:58:16.355Z,45.57
2017-11-27T04:00:44.731Z,48.00
2017-11-27T04:03:13.808Z,38.03
2017-11-27T04:05:42.200Z,40.37
2017-11-27T04:08:11.276Z,43.97
2017-11-27T04:10:39.579Z,34.87
2017-11-27T04:13:08.653Z,44.87
2017-11-27T04:15:37.768Z,39.70
2017-11-27T04:18:06.140Z,42.77
2017-11-27T04:20:35.331Z,46.67
2017-11-27T04:23:03.628Z,50.97
2017-11-27T04:25:31.987Z,61.77
2017-11-27T04:28:01.065Z,45.60
2017-11-27T04:30:29.362Z,40.73
2017-11-27T04:32:57.740Z,48.80
2017-11-27T04:41:21.556Z,50.83
2017-11-27T04:43:50.575Z,45.47
2017-11-27T04:46:18.940Z,50.13
2017-11-27T04:48:47.135Z,46.80
2017-11-27T04:51:15.343Z,61.27
2017-11-27T04:53:43.669Z,54.83
2017-11-27T04:56:12.647Z,55.13
2017-11-27T04:58:41.659Z,55.30
2017-11-27T05:01:09.897Z,54.63
2017-11-27T05:03:38.218Z,60.40
2017-11-27T05:06:06.489Z,48.90
2017-11-27T05:08:34.764Z,60.83
2017-11-27T05:11:02.995Z,46.07
2017-11-27T05:13:31.218Z,39.60
2017-11-27T05:15:59.484Z,40.20
2017-11-27T05:18:27.750Z,35.13
2017-11-27T05:20:56.732Z,53.47
2017-11-27T05:23:25.725Z,54.50
2017-11-27T05:25:54.719Z,61.40
2017-11-27T05:28:22.948Z,55.20
2017-11-27T05:30:51.185Z,53.93
2017-11-27T05:33:19.463Z,51.93
2017-11-27T05:35:47.687Z,52.80
2017-11-27T05:38:15.910Z,52.13
2017-11-27T05:40:44.127Z,56.67
2017-11-27T05:43:12.347Z,70.83
2017-11-27T05:45:41.357Z,51.40
2017-11-27T05:48:09.567Z,18.30
2017-11-27T05:50:37.776Z,23.57
2017-11-27T05:53:06.006Z,37.27
2017-11-27T05:55:34.226Z,31.37
2017-11-27T05:58:03.249Z,22.63
2017-11-27T06:00:31.455Z,29.50
2017-11-27T06:02:59.698Z,37.30
2017-11-27T06:05:27.912Z,19.93
2017-11-27T06:07:56.146Z,39.93
2017-11-27T06:10:24.359Z,22.17
2017-11-27T06:12:52.705Z,26.63
2017-11-27T06:15:20.923Z,40.57
2017-11-27T06:17:49.961Z,33.27
2017-11-27T06:20:18.184Z,30.80
2017-11-27T06:22:46.796Z,36.30
2017-11-27T06:25:15.811Z,35.97
2017-11-27T06:27:44.371Z,31.80
2017-11-27T06:30:13.376Z,33.70
2017-11-27T06:32:42.386Z,35.67
2017-11-27T06:35:10.671Z,55.67
2017-11-27T06:37:38.939Z,36.70
2017-11-27T06:40:07.150Z,55.90
2017-11-27T06:42:35.432Z,58.67
2017-11-27T06:45:04.454Z,56.63
2017-11-27T06:47:33.452Z,52.47
2017-11-27T06:50:01.677Z,21.73
2017-11-27T06:52:29.959Z,41.57
2017-11-27T06:54:58.189Z,32.20
2017-11-27T06:57:26.450Z,45.27
2017-11-27T06:59:55.441Z,56.60
2017-11-27T07:02:24.451Z,25.10
2017-11-27T07:04:53.424Z,32.93
2017-11-27T07:07:22.424Z,24.27
2017-11-27T07:09:51.408Z,32.77
2017-11-27T07:12:19.689Z,31.17
2017-11-27T07:14:48.687Z,37.53
2017-11-27T07:17:17.850Z,32.43
2017-11-27T07:19:46.082Z,28.87
2017-11-27T07:22:14.291Z,40.37
2017-11-27T07:24:43.315Z,33.77
2017-11-27T07:27:12.304Z,31.33
2017-11-27T07:29:41.316Z,47.77
2017-11-27T07:32:09.536Z,27.73
2017-11-27T07:34:37.747Z,38.83
2017-11-27T07:37:06.756Z,42.80
2017-11-27T07:39:40.607Z,52.70
2017-11-27T07:42:09.948Z,48.07
2017-11-27T07:44:38.944Z,52.13
2017-11-27T07:47:07.952Z,46.53
2017-11-27T07:49:36.181Z,46.60
2017-11-27T07:52:04.418Z,48.30
2017-11-27T07:54:32.649Z,47.20
2017-11-27T07:57:01.652Z,39.10
2017-11-27T07:59:30.668Z,42.87
2017-11-27T08:01:58.877Z,44.57
2017-11-27T08:04:27.114Z,45.67
2017-11-27T08:06:55.358Z,48.60
2017-11-27T08:09:23.599Z,51.17
2017-11-27T08:11:52.656Z,53.30
2017-11-27T08:14:20.898Z,47.07
2017-11-27T08:16:49.903Z,46.50
2017-11-27T08:19:18.917Z,35.43
2017-11-27T08:21:47.896Z,40.17
2017-11-27T08:24:16.123Z,40.80
2017-11-27T08:26:44.372Z,43.67
2017-11-27T08:29:12.588Z,40.10
2017-11-27T08:31:41.606Z,34.70
2017-11-27T08:34:10.620Z,31.20
2017-11-27T08:36:38.861Z,31.30
2017-11-27T08:39:07.889Z,30.33
2017-11-27T08:41:36.104Z,30.33
2017-11-27T08:44:04.327Z,33.10
2017-11-27T08:46:32.562Z,27.63
2017-11-27T08:49:00.787Z,24.83
2017-11-27T08:51:29.037Z,25.90
2017-11-27T08:53:58.073Z,43.03
2017-11-27T08:56:26.288Z,23.70
2017-11-27T08:58:54.516Z,24.17
2017-11-27T09:01:22.754Z,27.07
2017-11-27T09:03:51.762Z,45.90
2017-11-27T09:06:19.984Z,56.53
2017-11-27T09:08:48.227Z,48.93
2017-11-27T09:11:16.459Z,47.30
2017-11-27T09:13:44.708Z,34.67
2017-11-27T09:16:12.932Z,21.33
2017-11-27T09:18:41.168Z,29.30
2017-11-27T09:21:09.416Z,21.33
2017-11-27T09:23:37.627Z,21.50
2017-11-27T09:26:05.846Z,17.87
2017-11-27T09:28:34.087Z,22.73
2017-11-27T09:31:02.302Z,33.00
2017-11-27T09:33:30.518Z,33.10
2017-11-27T09:35:59.519Z,23.97
2017-11-27T09:38:27.756Z,26.57
2017-11-27T09:40:55.936Z,24.70
2017-11-27T09:43:24.171Z,30.77
2017-11-27T09:45:53.148Z,40.83
2017-11-27T09:48:22.157Z,37.60
2017-11-27T09:50:51.120Z,35.37
2017-11-27T09:53:19.407Z,69.23
2017-11-27T09:55:47.604Z,37.83
2017-11-27T09:58:15.829Z,36.27
2017-11-27T10:00:44.125Z,43.00
2017-11-27T10:03:12.325Z,36.60
2017-11-27T10:05:40.564Z,43.40
2017-11-27T10:08:08.832Z,39.30
2017-11-27T10:10:37.047Z,65.90
2017-11-27T10:13:05.282Z,31.40
2017-11-27T10:15:33.503Z,32.27
2017-11-27T10:18:01.722Z,28.83
2017-11-27T10:20:29.955Z,32.43
2017-11-27T10:22:58.208Z,41.23
2017-11-27T10:25:27.197Z,31.70
2017-11-27T10:27:56.290Z,59.43
2017-11-27T10:30:24.480Z,57.17
2017-11-27T10:32:52.724Z,25.33
2017-11-27T10:35:21.741Z,26.70
2017-11-27T10:37:49.981Z,33.10
2017-11-27T10:40:18.213Z,30.20
2017-11-27T10:42:46.420Z,34.20
2017-11-27T10:45:14.668Z,32.87
2017-11-27T10:47:42.913Z,31.53
2017-11-27T10:50:11.143Z,30.03
2017-11-27T10:52:39.360Z,29.67
2017-11-27T10:55:08.362Z,28.60
2017-11-27T10:57:36.584Z,28.90
2017-11-27T11:00:04.824Z,30.60
2017-11-27T11:02:33.051Z,32.60
2017-11-27T11:05:01.292Z,33.30
2017-11-27T11:07:29.535Z,45.23
2017-11-27T11:09:58.589Z,37.30
2017-11-27T11:12:26.817Z,33.87
2017-11-27T11:14:55.041Z,37.53
2017-11-27T11:17:24.077Z,36.73
2017-11-27T11:19:52.312Z,34.93
2017-11-27T11:22:20.746Z,41.37
2017-11-27T11:24:48.972Z,39.70
2017-11-27T11:27:17.959Z,37.43
2017-11-27T11:29:46.234Z,46.67
2017-11-27T11:32:14.458Z,39.30
2017-11-27T11:34:42.708Z,32.67
2017-11-27T11:37:11.691Z,28.20
2017-11-27T11:39:40.379Z,38.77
2017-11-27T11:42:08.554Z,44.10
2017-11-27T11:44:37.548Z,28.37
2017-11-27T11:47:06.638Z,44.30
2017-11-27T11:49:35.648Z,41.47
2017-11-27T11:52:04.619Z,33.77
2017-11-27T11:54:33.612Z,28.30
2017-11-27T11:57:01.839Z,62.83
2017-11-27T11:59:30.830Z,65.13
2017-11-27T12:01:59.047Z,71.57
2017-11-27T12:04:28.051Z,57.07
2017-11-27T12:06:57.041Z,57.73
2017-11-27T12:09:26.044Z,44.10
2017-11-27T12:11:55.048Z,45.73
2017-11-27T12:14:23.285Z,45.03
2017-11-27T12:16:51.525Z,40.80
2017-11-27T12:19:19.824Z,32.20
2017-11-27T12:21:48.048Z,51.03
2017-11-27T12:24:16.284Z,52.93
2017-11-27T12:26:44.508Z,57.10
2017-11-27T12:29:12.723Z,51.30
2017-11-27T12:31:40.924Z,76.00
2017-11-27T12:34:09.961Z,70.03
2017-11-27T12:36:38.180Z,86.53
2017-11-27T12:39:06.421Z,74.23
2017-11-27T12:41:34.652Z,78.33
2017-11-27T12:44:03.637Z,69.33
2017-11-27T12:46:32.617Z,63.80
2017-11-27T12:49:00.832Z,56.43
2017-11-27T12:51:29.044Z,58.33
2017-11-27T12:53:57.249Z,53.90
2017-11-27T12:56:25.611Z,52.77
2017-11-27T12:58:53.820Z,69.97
2017-11-27T13:01:22.089Z,65.03
2017-11-27T13:03:51.071Z,57.27
2017-11-27T13:06:20.130Z,60.97
2017-11-27T13:08:48.383Z,63.27
2017-11-27T13:11:16.606Z,71.33
2017-11-27T13:13:46.633Z,78.90
2017-11-27T13:16:14.898Z,73.73
2017-11-27T13:18:43.884Z,82.03
2017-11-27T13:21:12.902Z,73.70
2017-11-27T13:23:41.139Z,69.70
2017-11-27T13:26:10.159Z,58.43
2017-11-27T13:28:38.442Z,63.83
2017-11-27T13:31:07.668Z,60.97
2017-11-27T13:33:35.908Z,65.30
2017-11-27T13:36:04.175Z,74.53
2017-11-27T13:38:32.399Z,53.97
2017-11-27T13:41:00.622Z,72.03
2017-11-27T13:43:29.622Z,66.70
2017-11-27T13:45:57.856Z,70.13
2017-11-27T13:48:26.086Z,69.03
2017-11-27T13:50:54.316Z,74.27
2017-11-27T13:53:22.624Z,65.93
2017-11-27T13:55:51.616Z,59.83
2017-11-27T13:58:19.850Z,53.87
2017-11-27T14:00:48.100Z,58.80
2017-11-27T14:03:16.324Z,51.00
2017-11-27T14:05:45.339Z,54.53
2017-11-27T14:08:14.316Z,55.63
2017-11-27T14:10:43.352Z,57.43
2017-11-27T14:13:11.568Z,54.53
2017-11-27T14:15:39.791Z,53.37
2017-11-27T14:18:08.040Z,54.23
2017-11-27T14:20:36.263Z,46.20
2017-11-27T14:23:04.502Z,55.00
2017-11-27T14:25:32.724Z,43.80
2017-11-27T14:28:00.986Z,50.20
2017-11-27T14:30:29.201Z,48.70
2017-11-27T14:32:58.198Z,44.93
2017-11-27T14:35:26.420Z,49.50
2017-11-27T14:37:54.632Z,45.60
2017-11-27T14:40:22.865Z,40.40
2017-11-27T14:42:52.307Z,43.97
2017-11-27T14:45:20.540Z,43.17
2017-11-27T14:47:48.945Z,44.47
2017-11-27T14:50:17.453Z,27.57
2017-11-27T14:52:45.752Z,30.90
2017-11-27T14:55:14.760Z,33.23
2017-11-27T14:57:43.027Z,34.13
2017-11-27T15:00:12.284Z,32.90
2017-11-27T15:02:40.653Z,32.07
2017-11-27T15:05:08.867Z,42.87
2017-11-27T15:07:37.873Z,34.47
2017-11-27T15:10:06.214Z,31.50
2017-11-27T15:12:34.431Z,47.80
2017-11-27T15:15:02.760Z,29.33
2017-11-27T15:17:31.062Z,24.80
2017-11-27T15:19:59.324Z,22.90
2017-11-27T15:22:28.316Z,30.93
2017-11-27T15:24:56.575Z,27.93
2017-11-27T15:27:24.826Z,29.73
2017-11-27T15:29:53.053Z,34.43
2017-11-27T15:32:22.073Z,27.97
2017-11-27T15:34:50.624Z,24.57
2017-11-27T15:37:19.640Z,30.37
2017-11-27T15:39:47.861Z,35.53
2017-11-27T15:42:16.108Z,36.37
2017-11-27T15:44:44.339Z,39.20
2017-11-27T15:47:13.330Z,41.67
2017-11-27T15:49:41.557Z,39.17
2017-11-27T15:52:09.792Z,40.20
2017-11-27T15:54:38.033Z,38.87
2017-11-27T15:57:07.062Z,41.47
2017-11-27T15:59:35.365Z,45.20
2017-11-27T16:02:03.615Z,34.43
2017-11-27T16:04:31.858Z,32.07
2017-11-27T16:07:01.013Z,34.37
2017-11-27T16:09:29.260Z,29.70
2017-11-27T16:11:57.524Z,29.80
2017-11-27T16:14:25.736Z,27.57
2017-11-27T16:16:53.978Z,57.07
2017-11-27T16:19:23.001Z,44.27
2017-11-27T16:21:51.236Z,50.80
2017-11-27T16:24:20.223Z,41.70
2017-11-27T16:26:48.471Z,47.30
2017-11-27T16:29:16.700Z,51.70
2017-11-27T16:31:44.944Z,28.10
2017-11-27T16:34:13.193Z,35.73
2017-11-27T16:36:41.496Z,53.83
2017-11-27T16:39:10.516Z,49.70
2017-11-27T16:41:39.517Z,26.93
2017-11-27T16:44:07.998Z,35.17
2017-11-27T16:46:36.352Z,36.93
2017-11-27T16:49:05.315Z,38.70
2017-11-27T16:51:33.563Z,47.03
2017-11-27T16:54:01.812Z,38.60
2017-11-27T16:56:30.784Z,36.47
2017-11-27T16:58:59.944Z,33.40
2017-11-27T17:01:28.236Z,39.30
2017-11-27T17:03:57.259Z,59.20
2017-11-27T17:06:26.247Z,50.13
2017-11-27T17:08:54.492Z,45.97
2017-11-27T17:11:22.750Z,51.10
2017-11-27T17:13:51.025Z,44.07
2017-11-27T17:16:19.258Z,55.50
2017-11-27T17:18:48.241Z,52.57
2017-11-27T17:21:17.242Z,53.97
2017-11-27T17:23:45.713Z,47.60
2017-11-27T17:26:14.788Z,38.80
2017-11-27T17:28:44.539Z,42.97
2017-11-27T17:31:12.800Z,54.83
2017-11-27T17:33:41.075Z,51.40
2017-11-27T17:36:09.315Z,47.47
2017-11-27T17:38:38.363Z,40.63
2017-11-27T17:41:06.637Z,53.57
2017-11-27T17:43:34.899Z,57.07
2017-11-27T17:46:03.185Z,48.40
2017-11-27T17:48:31.463Z,49.10
2017-11-27T17:50:59.714Z,50.40
2017-11-27T17:53:28.055Z,40.30
2017-11-27T17:55:56.312Z,39.90
2017-11-27T17:58:24.548Z,41.93
2017-11-27T18:00:52.890Z,52.97
2017-11-27T18:03:21.136Z,12.10
2017-11-27T18:05:49.397Z,20.83
2017-11-27T18:08:17.616Z,13.60
2017-11-27T18:10:45.858Z,15.40
2017-11-27T18:13:14.181Z,11.00
2017-11-27T18:15:42.380Z,10.90
2017-11-27T18:18:10.625Z,14.63
2017-11-27T18:20:38.865Z,31.50
2017-11-27T18:23:07.099Z,16.00
2017-11-27T18:25:35.341Z,14.03
2017-11-27T18:28:03.563Z,11.80
2017-11-27T18:30:31.829Z,36.70
2017-11-27T18:33:00.039Z,12.53
2017-11-27T18:35:28.285Z,14.87
2017-11-27T18:37:56.518Z,11.30
2017-11-27T18:40:24.838Z,14.00
2017-11-27T18:42:53.065Z,9.50
2017-11-27T18:45:21.329Z,14.10
2017-11-27T18:47:49.541Z,12.23
2017-11-27T18:50:18.543Z,12.67
2017-11-27T18:52:46.786Z,13.60
2017-11-27T18:55:15.805Z,14.17
2017-11-27T18:57:44.804Z,59.97
2017-11-27T19:00:13.025Z,51.17
2017-11-27T19:02:41.303Z,44.77
2017-11-27T19:05:09.536Z,56.27
2017-11-27T19:07:37.781Z,19.90
2017-11-27T19:10:06.058Z,15.27
2017-11-27T19:12:35.073Z,48.67
2017-11-27T19:15:03.302Z,51.93
2017-11-27T19:17:31.657Z,52.33
2017-11-27T19:19:59.950Z,70.23
2017-11-27T19:22:28.170Z,20.90
2017-11-27T19:24:56.439Z,50.57
2017-11-27T19:27:24.681Z,27.37
2017-11-27T19:29:52.949Z,29.80
2017-11-27T19:32:21.310Z,26.90
2017-11-27T19:34:49.593Z,22.87
2017-11-27T19:37:17.812Z,24.70
2017-11-27T19:39:46.792Z,25.27
2017-11-27T19:42:15.127Z,26.77
2017-11-27T19:44:43.346Z,28.53
2017-11-27T19:47:11.555Z,22.50
2017-11-27T19:49:40.526Z,22.23
2017-11-27T19:52:09.518Z,26.27
2017-11-27T19:54:38.504Z,21.90
2017-11-27T19:57:07.512Z,19.53
2017-11-27T19:59:35.749Z,29.43
2017-11-27T20:02:03.992Z,22.83
2017-11-27T20:04:32.298Z,26.17
2017-11-27T20:07:00.535Z,22.90
2017-11-27T20:09:28.811Z,16.13
2017-11-27T20:11:59.017Z,18.80
2017-11-27T20:14:30.156Z,16.70
2017-11-27T20:16:58.808Z,19.63
2017-11-27T20:19:28.619Z,18.33
2017-11-27T20:21:57.302Z,20.97
2017-11-27T20:24:28.581Z,17.13
2017-11-27T20:26:59.063Z,20.10
2017-11-27T20:29:28.914Z,14.97
2017-11-27T20:32:01.347Z,25.77
2017-11-27T20:34:32.787Z,15.63
2017-11-27T20:37:04.174Z,18.70
2017-11-27T20:39:33.021Z,18.47
2017-11-27T20:42:01.251Z,17.90
2017-11-27T20:44:29.526Z,18.90
2017-11-27T20:46:57.820Z,18.73
2017-11-27T20:49:26.081Z,18.83
2017-11-27T20:51:54.471Z,14.27
2017-11-27T20:54:22.697Z,19.57
2017-11-27T20:56:50.932Z,14.50
2017-11-27T20:59:19.192Z,35.97
2017-11-27T21:01:48.169Z,13.23
2017-11-27T21:04:16.431Z,15.83
2017-11-27T21:06:45.415Z,21.50
2017-11-27T21:09:13.636Z,15.70
2017-11-27T21:11:41.880Z,14.73
2017-11-27T21:14:10.274Z,15.47
2017-11-27T21:16:38.602Z,12.17
2017-11-27T21:19:06.836Z,12.47
2017-11-27T21:21:35.088Z,14.13
2017-11-27T21:24:03.333Z,16.53
2017-11-27T21:26:31.586Z,9.97
2017-11-27T21:29:00.492Z,17.23
2017-11-27T21:31:29.353Z,18.10
2017-11-27T21:33:57.579Z,18.40
2017-11-27T21:36:26.633Z,10.93
2017-11-27T21:38:54.840Z,13.03
2017-11-27T21:41:23.101Z,16.90
2017-11-27T21:43:51.321Z,15.83
2017-11-27T21:46:19.573Z,30.70
2017-11-27T21:48:47.799Z,15.47
2017-11-27T21:51:15.996Z,6.53
2017-11-27T21:53:44.279Z,17.60
2017-11-27T21:56:12.487Z,26.47
2017-11-27T21:58:40.729Z,26.00
2017-11-27T22:01:09.188Z,29.13
2017-11-27T22:03:37.388Z,19.50
2017-11-27T22:06:05.887Z,18.20
2017-11-27T22:08:34.199Z,39.93
2017-11-27T22:11:03.255Z,24.50
2017-11-27T22:13:31.643Z,16.90
2017-11-27T22:15:59.955Z,18.90
2017-11-27T22:18:28.180Z,12.73
2017-11-27T22:20:57.276Z,18.07
2017-11-27T22:23:25.480Z,27.47
2017-11-27T22:25:53.697Z,21.70
2017-11-27T22:28:21.977Z,23.27
2017-11-27T22:30:51.013Z,19.20
2017-11-27T22:33:19.228Z,25.20
2017-11-27T22:35:47.449Z,17.50
2017-11-27T22:38:16.445Z,12.73
2017-11-27T22:40:45.432Z,11.20
2017-11-27T22:43:14.426Z,12.03
2017-11-27T22:45:43.414Z,21.27
2017-11-27T22:48:11.625Z,12.07
2017-11-27T22:50:39.835Z,14.00
2017-11-27T22:53:08.859Z,14.63
2017-11-27T22:55:37.336Z,17.30
2017-11-27T22:58:06.343Z,15.00
2017-11-27T23:00:34.571Z,25.73
2017-11-27T23:03:02.843Z,19.90
2017-11-27T23:05:31.044Z,36.37
2017-11-27T23:07:59.254Z,22.00
2017-11-27T23:10:28.232Z,21.67
2017-11-27T23:12:56.454Z,25.90
2017-11-27T23:15:24.673Z,25.10
2017-11-27T23:17:53.726Z,29.07
2017-11-27T23:20:21.948Z,20.23
2017-11-27T23:22:50.931Z,21.00
2017-11-27T23:25:19.165Z,22.90
2017-11-27T23:27:48.191Z,28.37
2017-11-27T23:30:17.213Z,27.90
2017-11-27T23:32:45.431Z,27.83
2017-11-27T23:35:13.639Z,24.10
2017-11-27T23:37:42.636Z,39.33
2017-11-27T23:40:11.660Z,20.93
2017-11-27T23:42:40.728Z,20.97
2017-11-27T23:45:09.705Z,29.97
2017-11-27T23:47:37.957Z,22.70
2017-11-27T23:50:06.964Z,21.80
2017-11-27T23:52:35.189Z,43.00
2017-11-27T23:55:03.408Z,31.17
2017-11-27T23:57:31.752Z,28.67
2017-11-27T23:59:59.955Z,33.57
